Atherton, Indiana
Current Conditions -  °F | °C
As of 4:53 PM on Monday 20 Oct 2014 (Local Time) from KHUF Reporting Station
Few Clouds Few Clouds  
Wind Chill: 70°   Ceiling: Unl
Heat Index: 70°   Visibility: 10mi
Dew Point: 43°   Wind: 12mph
Humidity: 38%   Direction: 280°W
Pressure: 29.86"   Gusts: 20mph
Location:  39.6386°N, 87.3045°W
Report Text: KHUF 202053Z 28010G17KT 10SM FEW060 21/06 A2986 RMK AO2 SLP110 T02110061 55007
Loading
Personal Weather Stations






























Interactive Weather Map
Tropical Storm Tracking
New forecast layout! Learn more

10-Day Weather Forecast

Advertisements
Track Severe Weather on mobile